createdAt,value
2018-03-19T00:00:46.262Z,51.60
2018-03-19T00:03:14.533Z,51.50
2018-03-19T00:05:42.066Z,51.50
2018-03-19T00:08:09.523Z,51.50
2018-03-19T00:10:37.008Z,51.50
2018-03-19T00:13:04.466Z,51.40
2018-03-19T00:15:31.936Z,51.70
2018-03-19T00:18:00.201Z,51.30
2018-03-19T00:20:27.709Z,51.20
2018-03-19T00:22:55.181Z,51.30
2018-03-19T00:25:22.688Z,51.30
2018-03-19T00:27:50.238Z,51.20
2018-03-19T00:30:17.667Z,51.20
2018-03-19T00:32:45.152Z,51.30
2018-03-19T00:35:12.632Z,51.30
2018-03-19T00:37:40.108Z,51.20
2018-03-19T00:40:07.582Z,51.20
2018-03-19T00:42:35.055Z,51.10
2018-03-19T00:45:02.533Z,51.20
2018-03-19T00:47:30.008Z,51.20
2018-03-19T00:49:57.471Z,51.10
2018-03-19T00:52:24.940Z,51.60
2018-03-19T00:54:52.418Z,51.00
2018-03-19T00:57:19.875Z,50.80
2018-03-19T00:59:47.351Z,50.80
2018-03-19T01:02:14.927Z,50.80
2018-03-19T01:04:42.403Z,50.70
2018-03-19T01:07:09.895Z,50.60
2018-03-19T01:09:37.371Z,50.60
2018-03-19T01:12:04.836Z,50.50
2018-03-19T01:14:32.309Z,50.90
2018-03-19T01:16:59.769Z,50.40
2018-03-19T01:19:27.243Z,50.40
2018-03-19T01:21:54.716Z,50.40
2018-03-19T01:24:22.195Z,50.40
2018-03-19T01:26:49.839Z,50.10
2018-03-19T01:29:17.355Z,50.00
2018-03-19T01:31:44.859Z,50.00
2018-03-19T01:34:12.323Z,49.90
2018-03-19T01:36:39.803Z,49.90
2018-03-19T01:39:07.264Z,49.80
2018-03-19T01:41:34.735Z,49.70
2018-03-19T01:44:02.195Z,49.70
2018-03-19T01:46:29.678Z,49.60
2018-03-19T01:48:57.907Z,49.70
2018-03-19T01:51:25.393Z,49.70
2018-03-19T01:53:52.871Z,49.70
2018-03-19T01:56:20.354Z,49.60
2018-03-19T01:58:47.823Z,49.70
2018-03-19T02:01:15.279Z,49.60
2018-03-19T02:03:42.752Z,49.50
2018-03-19T02:06:10.218Z,49.60
2018-03-19T02:08:37.703Z,49.60
2018-03-19T02:11:05.932Z,49.60
2018-03-19T02:13:33.408Z,49.60
2018-03-19T02:16:00.880Z,49.60
2018-03-19T02:18:28.356Z,49.50
2018-03-19T02:20:55.826Z,49.50
2018-03-19T02:23:23.301Z,49.50
2018-03-19T02:25:50.767Z,49.40
2018-03-19T02:28:18.243Z,49.40
2018-03-19T02:30:45.699Z,49.40
2018-03-19T02:33:13.182Z,49.50
2018-03-19T02:35:40.641Z,49.40
2018-03-19T02:38:08.887Z,49.20
2018-03-19T02:40:36.354Z,49.30
2018-03-19T02:43:03.828Z,49.20
2018-03-19T02:45:31.297Z,49.30
2018-03-19T02:47:58.763Z,49.30
2018-03-19T02:50:26.238Z,49.20
2018-03-19T02:52:53.710Z,49.20
2018-03-19T02:55:21.186Z,49.10
2018-03-19T02:57:48.660Z,49.00
2018-03-19T03:00:16.136Z,49.00
2018-03-19T03:02:44.375Z,49.30
2018-03-19T03:05:11.852Z,49.20
2018-03-19T03:07:39.324Z,49.30
2018-03-19T03:10:06.813Z,49.70
2018-03-19T03:12:34.276Z,49.20
2018-03-19T03:15:01.743Z,49.10
2018-03-19T03:17:29.211Z,49.10
2018-03-19T03:19:56.675Z,49.10
2018-03-19T03:22:24.143Z,48.90
2018-03-19T03:24:51.623Z,48.80
2018-03-19T03:27:19.916Z,48.90
2018-03-19T03:29:47.340Z,48.90
2018-03-19T03:32:14.811Z,48.90
2018-03-19T03:34:42.269Z,48.80
2018-03-19T03:37:09.739Z,48.90
2018-03-19T03:39:37.205Z,48.80
2018-03-19T03:42:04.717Z,48.70
2018-03-19T03:44:32.175Z,48.80
2018-03-19T03:46:59.631Z,48.80
2018-03-19T03:49:27.115Z,48.80
2018-03-19T03:51:55.335Z,48.60
2018-03-19T03:54:22.816Z,48.60
2018-03-19T03:56:50.284Z,48.50
2018-03-19T03:59:17.751Z,48.70
2018-03-19T04:01:45.220Z,48.50
2018-03-19T04:04:12.702Z,48.50
2018-03-19T04:06:40.176Z,48.50
2018-03-19T04:09:07.763Z,49.10
2018-03-19T04:11:35.231Z,48.40
2018-03-19T04:14:02.699Z,48.20
2018-03-19T04:16:30.171Z,48.30
2018-03-19T04:18:57.648Z,48.40
2018-03-19T04:21:25.125Z,48.40
2018-03-19T04:23:52.607Z,48.40
2018-03-19T04:26:20.071Z,48.40
2018-03-19T04:28:47.547Z,48.40
2018-03-19T04:31:15.013Z,48.40
2018-03-19T04:33:42.493Z,48.30
2018-03-19T04:36:09.971Z,48.40
2018-03-19T04:38:37.443Z,48.30
2018-03-19T04:41:04.904Z,48.50
2018-03-19T04:43:32.385Z,48.40
2018-03-19T04:46:00.628Z,48.40
2018-03-19T04:48:28.095Z,48.40
2018-03-19T04:50:55.567Z,48.30
2018-03-19T04:53:23.031Z,48.20
2018-03-19T04:55:50.530Z,48.10
2018-03-19T04:58:17.998Z,48.10
2018-03-19T05:00:45.464Z,48.30
2018-03-19T05:03:12.927Z,48.30
2018-03-19T05:05:40.399Z,48.30
2018-03-19T05:08:07.867Z,48.30
2018-03-19T05:10:36.111Z,48.40
2018-03-19T05:13:03.576Z,48.20
2018-03-19T05:15:31.052Z,48.20
2018-03-19T05:17:58.512Z,48.40
2018-03-19T05:20:25.971Z,48.30
2018-03-19T05:22:53.460Z,48.40
2018-03-19T05:25:20.924Z,48.30
2018-03-19T05:27:48.412Z,48.30
2018-03-19T05:30:15.871Z,48.30
2018-03-19T05:32:43.343Z,48.00
2018-03-19T05:35:10.823Z,48.50
2018-03-19T05:37:39.065Z,48.30
2018-03-19T05:40:06.532Z,48.30
2018-03-19T05:42:34.004Z,48.20
2018-03-19T05:45:01.512Z,48.20
2018-03-19T05:47:28.984Z,48.20
2018-03-19T05:49:56.444Z,48.20
2018-03-19T05:52:23.936Z,48.30
2018-03-19T05:54:52.172Z,48.30
2018-03-19T05:57:19.639Z,48.20
2018-03-19T05:59:47.121Z,48.10
2018-03-19T06:02:14.580Z,48.20
2018-03-19T06:04:42.095Z,48.30
2018-03-19T06:07:09.565Z,48.20
2018-03-19T06:09:37.077Z,48.20
2018-03-19T06:12:04.572Z,48.60
2018-03-19T06:14:32.056Z,48.10
2018-03-19T06:16:59.519Z,48.20
2018-03-19T06:19:26.999Z,48.20
2018-03-19T06:21:54.472Z,47.90
2018-03-19T06:24:21.962Z,47.60
2018-03-19T06:26:49.447Z,47.70
2018-03-19T06:29:16.943Z,47.70
2018-03-19T06:31:44.418Z,47.70
2018-03-19T06:34:11.928Z,47.60
2018-03-19T06:36:40.182Z,47.70
2018-03-19T06:39:07.982Z,47.60
2018-03-19T06:41:35.464Z,47.70
2018-03-19T06:44:02.951Z,47.60
2018-03-19T06:46:30.437Z,47.50
2018-03-19T06:48:58.695Z,47.50
2018-03-19T06:51:26.829Z,47.50
2018-03-19T06:53:54.307Z,47.40
2018-03-19T06:56:21.806Z,47.40
2018-03-19T06:58:50.043Z,47.40
2018-03-19T07:01:18.450Z,47.30
2018-03-19T07:03:45.929Z,47.30
2018-03-19T07:06:13.456Z,47.30
2018-03-19T07:08:41.721Z,47.20
2018-03-19T07:11:09.179Z,47.10
2018-03-19T07:13:36.713Z,47.30
2018-03-19T07:16:04.263Z,47.30
2018-03-19T07:18:31.741Z,47.30
2018-03-19T07:20:59.214Z,47.10
2018-03-19T07:23:26.695Z,47.00
2018-03-19T07:25:54.158Z,47.00
2018-03-19T07:28:21.645Z,47.00
2018-03-19T07:30:49.123Z,47.00
2018-03-19T07:33:16.816Z,46.80
2018-03-19T07:35:44.275Z,46.70
2018-03-19T07:38:11.776Z,46.70
2018-03-19T07:40:39.257Z,46.70
2018-03-19T07:43:06.852Z,46.70
2018-03-19T07:45:35.090Z,46.60
2018-03-19T07:48:02.543Z,46.60
2018-03-19T07:50:30.015Z,46.60
2018-03-19T07:52:57.484Z,46.60
2018-03-19T07:55:24.961Z,46.40
2018-03-19T07:57:52.432Z,46.40
2018-03-19T08:00:19.910Z,46.50
2018-03-19T08:02:47.491Z,46.40
2018-03-19T08:05:14.993Z,46.30
2018-03-19T08:07:42.454Z,46.30
2018-03-19T08:10:09.959Z,46.30
2018-03-19T08:12:37.463Z,46.10
2018-03-19T08:15:04.941Z,46.10
2018-03-19T08:17:32.407Z,46.20
2018-03-19T08:19:59.897Z,46.10
2018-03-19T08:22:27.382Z,46.10
2018-03-19T08:24:54.867Z,46.00
2018-03-19T08:27:22.335Z,45.90
2018-03-19T08:29:50.463Z,45.70
2018-03-19T08:32:17.968Z,45.70
2018-03-19T08:34:45.438Z,45.60
2018-03-19T08:37:12.933Z,45.50
2018-03-19T08:39:40.444Z,45.30
2018-03-19T08:42:07.887Z,45.30
2018-03-19T08:44:35.358Z,45.30
2018-03-19T08:47:02.828Z,45.40
2018-03-19T08:49:30.334Z,45.20
2018-03-19T08:51:57.829Z,45.10
2018-03-19T08:54:25.285Z,45.50
2018-03-19T08:56:52.764Z,44.80
2018-03-19T08:59:20.236Z,44.60
2018-03-19T09:01:47.716Z,44.60
2018-03-19T09:04:15.199Z,44.40
2018-03-19T09:06:42.743Z,44.40
2018-03-19T09:09:10.232Z,44.30
2018-03-19T09:11:37.692Z,44.30
2018-03-19T09:14:05.173Z,44.20
2018-03-19T09:16:32.652Z,44.20
2018-03-19T09:19:00.123Z,44.10
2018-03-19T09:21:28.368Z,44.10
2018-03-19T09:23:55.828Z,44.00
2018-03-19T09:26:25.439Z,44.40
2018-03-19T09:28:52.911Z,43.90
2018-03-19T09:31:20.379Z,43.70
2018-03-19T09:33:47.864Z,43.80
2018-03-19T09:36:15.331Z,43.70
2018-03-19T09:38:42.840Z,43.70
2018-03-19T09:41:10.295Z,43.60
2018-03-19T09:43:37.762Z,43.50
2018-03-19T09:46:05.230Z,43.40
2018-03-19T09:48:33.470Z,43.50
2018-03-19T09:51:00.916Z,43.50
2018-03-19T09:53:28.401Z,43.30
2018-03-19T09:55:55.857Z,43.20
2018-03-19T09:58:23.524Z,43.20
2018-03-19T10:00:51.000Z,43.20
2018-03-19T10:03:18.491Z,43.10
2018-03-19T10:05:45.967Z,43.00
2018-03-19T10:08:13.436Z,42.90
2018-03-19T10:10:40.920Z,42.90
2018-03-19T10:13:08.391Z,42.90
2018-03-19T10:15:35.919Z,42.90
2018-03-19T10:18:03.380Z,42.80
2018-03-19T10:20:30.858Z,42.90
2018-03-19T10:22:59.099Z,42.80
2018-03-19T10:25:26.592Z,42.80
2018-03-19T10:27:54.057Z,42.80
2018-03-19T10:30:21.541Z,42.80
2018-03-19T10:32:49.088Z,42.90
2018-03-19T10:35:16.548Z,42.70
2018-03-19T10:37:44.047Z,42.60
2018-03-19T10:40:11.527Z,42.70
2018-03-19T10:42:39.014Z,42.60
2018-03-19T10:45:06.497Z,42.40
2018-03-19T10:47:34.717Z,42.40
2018-03-19T10:50:02.982Z,42.30
2018-03-19T10:52:30.476Z,42.20
2018-03-19T10:54:57.970Z,42.20
2018-03-19T10:57:25.475Z,42.20
2018-03-19T10:59:53.760Z,42.30
2018-03-19T11:02:26.763Z,42.30
2018-03-19T11:04:54.244Z,42.20
2018-03-19T11:07:41.747Z,42.20
2018-03-19T11:10:09.286Z,42.10
2018-03-19T11:12:36.768Z,42.20
2018-03-19T11:15:04.253Z,42.00
2018-03-19T11:17:32.348Z,42.10
2018-03-19T11:19:59.860Z,42.50
2018-03-19T11:22:27.305Z,41.90
2018-03-19T11:24:54.780Z,41.80
2018-03-19T11:27:22.258Z,41.70
2018-03-19T11:29:49.741Z,41.80
2018-03-19T11:32:17.976Z,42.00
2018-03-19T11:34:45.509Z,42.00
2018-03-19T11:37:12.994Z,41.90
2018-03-19T11:39:40.480Z,41.80
2018-03-19T11:42:07.949Z,41.70
2018-03-19T11:44:36.204Z,41.70
2018-03-19T11:47:03.686Z,41.70
2018-03-19T11:49:31.185Z,41.50
2018-03-19T11:51:58.692Z,41.60
2018-03-19T11:54:27.015Z,41.40
2018-03-19T11:56:54.528Z,41.30
2018-03-19T11:59:21.983Z,41.30
2018-03-19T12:01:49.545Z,41.30
2018-03-19T12:04:17.024Z,41.70
2018-03-19T12:06:45.257Z,40.90
2018-03-19T12:09:12.715Z,40.80
2018-03-19T12:11:40.192Z,40.90
2018-03-19T12:14:07.645Z,41.50
2018-03-19T12:16:35.145Z,41.10
2018-03-19T12:19:02.616Z,41.70
2018-03-19T12:21:30.099Z,41.20
2018-03-19T12:23:57.573Z,41.20
2018-03-19T12:26:25.049Z,41.10
2018-03-19T12:28:52.531Z,41.20
2018-03-19T12:31:20.056Z,41.20
2018-03-19T12:33:47.539Z,41.10
2018-03-19T12:36:15.002Z,40.90
2018-03-19T12:38:42.564Z,40.90
2018-03-19T12:41:10.031Z,40.70
2018-03-19T12:43:37.656Z,40.50
2018-03-19T12:46:05.142Z,40.40
2018-03-19T12:48:32.674Z,40.30
2018-03-19T12:51:00.215Z,40.30
2018-03-19T12:53:27.667Z,40.30
2018-03-19T12:55:55.620Z,40.00
2018-03-19T12:58:23.063Z,39.90
2018-03-19T13:00:50.532Z,39.90
2018-03-19T13:03:17.996Z,39.80
2018-03-19T13:05:45.488Z,39.60
2018-03-19T13:08:12.969Z,39.30
2018-03-19T13:10:40.455Z,39.20
2018-03-19T13:13:07.916Z,39.20
2018-03-19T13:15:35.416Z,39.00
2018-03-19T13:18:02.904Z,38.80
2018-03-19T13:20:30.402Z,38.70
2018-03-19T13:22:57.879Z,38.50
2018-03-19T13:25:25.383Z,38.30
2018-03-19T13:27:52.906Z,38.10
2018-03-19T13:30:21.137Z,37.90
2018-03-19T13:32:48.625Z,37.80
2018-03-19T13:35:16.116Z,37.80
2018-03-19T13:37:43.664Z,37.80
2018-03-19T13:40:11.176Z,37.70
2018-03-19T13:42:38.696Z,38.10
2018-03-19T13:45:06.179Z,37.50
2018-03-19T13:47:34.537Z,37.40
2018-03-19T13:50:02.023Z,37.20
2018-03-19T13:52:29.503Z,36.90
2018-03-19T13:54:56.989Z,36.80
2018-03-19T13:57:24.458Z,36.90
2018-03-19T13:59:51.937Z,36.80
2018-03-19T14:02:19.438Z,36.60
2018-03-19T14:04:46.904Z,36.50
2018-03-19T14:07:15.166Z,36.30
2018-03-19T14:09:42.707Z,36.30
2018-03-19T14:12:10.186Z,36.40
2018-03-19T14:14:37.714Z,36.20
2018-03-19T14:17:05.313Z,36.20
2018-03-19T14:19:32.832Z,36.10
2018-03-19T14:22:00.252Z,36.00
2018-03-19T14:24:27.785Z,35.90
2018-03-19T14:26:56.063Z,35.90
2018-03-19T14:29:23.546Z,35.80
2018-03-19T14:31:51.070Z,35.90
2018-03-19T14:34:19.317Z,35.90
2018-03-19T14:36:46.828Z,35.80
2018-03-19T14:39:14.308Z,35.80
2018-03-19T14:41:41.910Z,35.70
2018-03-19T14:44:09.384Z,35.60
2018-03-19T14:46:36.848Z,35.50
2018-03-19T14:49:04.364Z,35.50
2018-03-19T14:51:31.901Z,35.50
2018-03-19T14:53:59.369Z,35.30
2018-03-19T14:56:26.830Z,35.20
2018-03-19T14:58:54.364Z,35.10
2018-03-19T15:01:21.923Z,35.00
2018-03-19T15:03:50.182Z,34.90
2018-03-19T15:06:17.657Z,34.90
2018-03-19T15:08:45.132Z,34.80
2018-03-19T15:11:12.723Z,34.70
2018-03-19T15:13:40.223Z,34.80
2018-03-19T15:16:07.689Z,34.80
2018-03-19T15:18:35.160Z,34.70
2018-03-19T15:21:02.636Z,34.60
2018-03-19T15:23:30.162Z,34.50
2018-03-19T15:25:57.639Z,34.40
2018-03-19T15:28:25.101Z,34.50
2018-03-19T15:30:52.612Z,34.90
2018-03-19T15:33:20.072Z,35.20
2018-03-19T15:35:47.552Z,35.40
2018-03-19T15:38:15.025Z,35.70
2018-03-19T15:40:42.505Z,36.00
2018-03-19T15:43:09.987Z,36.30
2018-03-19T15:45:37.464Z,36.50
2018-03-19T15:48:04.929Z,36.60
2018-03-19T15:50:32.423Z,36.90
2018-03-19T15:52:59.884Z,37.00
2018-03-19T15:55:28.024Z,37.10
2018-03-19T15:57:55.492Z,37.30
2018-03-19T16:00:22.963Z,37.30
2018-03-19T16:02:50.447Z,37.50
2018-03-19T16:05:17.921Z,37.70
2018-03-19T16:07:45.407Z,37.90
2018-03-19T16:10:12.868Z,37.90
2018-03-19T16:12:40.347Z,38.00
2018-03-19T16:15:07.828Z,38.20
2018-03-19T16:17:35.308Z,38.30
2018-03-19T16:20:02.773Z,38.50
2018-03-19T16:22:30.256Z,38.60
2018-03-19T16:24:57.726Z,38.70
2018-03-19T16:27:25.253Z,38.80
2018-03-19T16:29:52.684Z,38.90
2018-03-19T16:32:20.162Z,39.10
2018-03-19T16:34:47.666Z,39.20
2018-03-19T16:37:15.199Z,39.30
2018-03-19T16:39:42.682Z,39.40
2018-03-19T16:42:10.188Z,39.50
2018-03-19T16:44:37.650Z,39.60
2018-03-19T16:47:05.108Z,39.60
2018-03-19T16:49:32.621Z,39.70
2018-03-19T16:52:00.098Z,39.90
2018-03-19T16:54:27.579Z,40.00
2018-03-19T16:56:55.811Z,40.00
2018-03-19T16:59:23.332Z,40.00
2018-03-19T17:01:50.790Z,39.90
2018-03-19T17:04:18.267Z,40.10
2018-03-19T17:06:45.765Z,40.20
2018-03-19T17:09:13.240Z,40.20
2018-03-19T17:11:41.473Z,40.30
2018-03-19T17:14:08.949Z,40.20
2018-03-19T17:16:36.412Z,40.30
2018-03-19T17:19:03.927Z,40.30
2018-03-19T17:21:31.400Z,40.30
2018-03-19T17:23:58.868Z,40.50
2018-03-19T17:26:26.360Z,40.50
2018-03-19T17:28:54.593Z,40.70
2018-03-19T17:31:22.079Z,40.60
2018-03-19T17:33:49.546Z,40.70
2018-03-19T17:36:17.024Z,40.80
2018-03-19T17:38:44.552Z,40.70
2018-03-19T17:41:12.802Z,40.80
2018-03-19T17:43:40.426Z,40.70
2018-03-19T17:46:07.895Z,40.80
2018-03-19T17:48:35.371Z,41.00
2018-03-19T17:51:02.869Z,41.10
2018-03-19T17:53:30.326Z,40.90
2018-03-19T17:55:58.588Z,41.10
2018-03-19T17:58:26.054Z,41.10
2018-03-19T18:00:54.312Z,41.70
2018-03-19T18:03:21.775Z,41.10
2018-03-19T18:05:49.251Z,41.10
2018-03-19T18:08:16.837Z,41.20
2018-03-19T18:10:44.307Z,41.20
2018-03-19T18:13:11.790Z,41.20
2018-03-19T18:15:39.259Z,41.30
2018-03-19T18:18:06.740Z,41.40
2018-03-19T18:20:34.236Z,41.50
2018-03-19T18:23:01.732Z,41.40
2018-03-19T18:25:29.352Z,42.10
2018-03-19T18:27:56.823Z,41.50
2018-03-19T18:30:24.307Z,41.60
2018-03-19T18:32:51.779Z,41.70
2018-03-19T18:35:19.248Z,41.80
2018-03-19T18:37:46.750Z,41.70
2018-03-19T18:40:14.216Z,41.90
2018-03-19T18:42:42.483Z,42.00
2018-03-19T18:45:09.944Z,42.00
2018-03-19T18:47:37.441Z,42.00
2018-03-19T18:50:04.936Z,42.00
2018-03-19T18:52:32.395Z,42.10
2018-03-19T18:54:59.867Z,42.20
2018-03-19T18:57:27.380Z,42.20
2018-03-19T18:59:54.852Z,42.30
2018-03-19T19:02:22.365Z,42.30
2018-03-19T19:04:49.839Z,42.40
2018-03-19T19:07:17.340Z,42.50
2018-03-19T19:09:44.800Z,42.60
2018-03-19T19:12:12.296Z,42.60
2018-03-19T19:14:39.770Z,42.70
2018-03-19T19:17:07.243Z,42.80
2018-03-19T19:19:34.710Z,42.80
2018-03-19T19:22:02.188Z,42.80
2018-03-19T19:24:29.668Z,42.70
2018-03-19T19:26:57.140Z,42.90
2018-03-19T19:29:24.630Z,43.00
2018-03-19T19:31:52.099Z,42.90
2018-03-19T19:34:19.589Z,43.10
2018-03-19T19:36:47.051Z,43.80
2018-03-19T19:39:14.537Z,43.20
2018-03-19T19:41:42.005Z,43.10
2018-03-19T19:44:10.255Z,43.40
2018-03-19T19:46:37.724Z,43.30
2018-03-19T19:49:05.191Z,43.50
2018-03-19T19:51:32.671Z,43.50
2018-03-19T19:54:00.185Z,43.40
2018-03-19T19:56:27.673Z,43.40
2018-03-19T19:58:56.013Z,43.50
2018-03-19T20:01:23.486Z,43.40
2018-03-19T20:03:50.972Z,43.50
2018-03-19T20:06:18.456Z,43.40
2018-03-19T20:08:45.963Z,43.50
2018-03-19T20:11:13.411Z,43.50
2018-03-19T20:13:40.930Z,43.60
2018-03-19T20:16:08.420Z,43.70
2018-03-19T20:18:35.877Z,43.60
2018-03-19T20:21:03.514Z,43.50
2018-03-19T20:23:30.984Z,43.60
2018-03-19T20:25:58.443Z,43.70
2018-03-19T20:28:25.936Z,43.70
2018-03-19T20:30:53.407Z,43.70
2018-03-19T20:33:20.880Z,43.70
2018-03-19T20:35:48.399Z,43.70
2018-03-19T20:38:15.876Z,43.60
2018-03-19T20:40:43.339Z,43.60
2018-03-19T20:43:10.814Z,43.60
2018-03-19T20:45:38.300Z,43.60
2018-03-19T20:48:05.768Z,43.50
2018-03-19T20:50:33.243Z,43.50
2018-03-19T20:53:00.725Z,43.50
2018-03-19T20:55:28.960Z,43.50
2018-03-19T20:57:56.457Z,43.50
2018-03-19T21:00:23.943Z,43.60
2018-03-19T21:02:51.419Z,43.70
2018-03-19T21:05:18.920Z,43.70
2018-03-19T21:07:47.181Z,43.80
2018-03-19T21:10:14.698Z,43.80
2018-03-19T21:12:42.209Z,43.80
2018-03-19T21:15:10.484Z,43.80
2018-03-19T21:17:37.978Z,43.80
2018-03-19T21:20:05.500Z,43.80
2018-03-19T21:22:33.754Z,43.80
2018-03-19T21:25:01.241Z,43.80
2018-03-19T21:27:28.711Z,43.80
2018-03-19T21:29:56.193Z,43.80
2018-03-19T21:32:23.674Z,44.30
2018-03-19T21:34:51.148Z,43.80
2018-03-19T21:37:18.648Z,43.80
2018-03-19T21:39:46.144Z,43.70
2018-03-19T21:42:13.609Z,43.80
2018-03-19T21:44:41.085Z,43.70
2018-03-19T21:47:08.587Z,43.80
2018-03-19T21:49:36.064Z,43.80
2018-03-19T21:52:03.562Z,43.80
2018-03-19T21:54:31.056Z,43.80
2018-03-19T21:56:58.525Z,43.80
2018-03-19T21:59:26.028Z,43.80
2018-03-19T22:01:53.603Z,43.90
2018-03-19T22:04:21.099Z,43.80
2018-03-19T22:06:48.568Z,43.90
2018-03-19T22:09:16.049Z,44.00
2018-03-19T22:11:43.510Z,43.90
2018-03-19T22:14:11.001Z,44.00
2018-03-19T22:16:38.468Z,44.00
2018-03-19T22:19:05.980Z,44.10
2018-03-19T22:21:33.456Z,44.00
2018-03-19T22:24:01.693Z,44.20
2018-03-19T22:26:29.179Z,44.20
2018-03-19T22:28:56.696Z,44.30
2018-03-19T22:31:24.227Z,44.30
2018-03-19T22:33:51.708Z,44.30
2018-03-19T22:36:19.212Z,44.30
2018-03-19T22:38:46.687Z,44.30
2018-03-19T22:41:14.177Z,44.40
2018-03-19T22:43:41.639Z,44.50
2018-03-19T22:46:09.152Z,44.50
2018-03-19T22:48:36.612Z,44.50
2018-03-19T22:51:04.099Z,44.60
2018-03-19T22:53:31.564Z,44.50
2018-03-19T22:55:59.053Z,44.50
2018-03-19T22:58:26.539Z,44.50
2018-03-19T23:00:54.788Z,44.50
2018-03-19T23:03:22.264Z,44.40
2018-03-19T23:05:49.733Z,44.40
2018-03-19T23:08:17.194Z,44.50
2018-03-19T23:10:44.679Z,44.50
2018-03-19T23:13:12.176Z,44.50
2018-03-19T23:15:39.639Z,44.50
2018-03-19T23:18:07.111Z,45.10
2018-03-19T23:20:35.344Z,45.20
2018-03-19T23:23:02.866Z,44.60
2018-03-19T23:25:30.291Z,44.60
2018-03-19T23:27:57.771Z,45.20
2018-03-19T23:30:25.250Z,44.70
2018-03-19T23:32:52.731Z,44.70
2018-03-19T23:35:20.204Z,44.80
2018-03-19T23:37:47.686Z,44.80
2018-03-19T23:40:15.143Z,44.80
2018-03-19T23:42:42.649Z,44.80
2018-03-19T23:45:10.116Z,45.00
2018-03-19T23:47:37.576Z,45.10
2018-03-19T23:50:05.100Z,45.20
2018-03-19T23:52:32.564Z,45.30
2018-03-19T23:55:00.088Z,45.40
2018-03-19T23:57:27.590Z,45.50
2018-03-19T23:59:55.067Z,45.50
